Flight Track Log - Related Links

Times and Time Zones

All times are in EDT time to prevent confusion due to time zone crossing. See the SWA1223 flight status page for this flight to view local times or setup timezone preferences in your user account.

Time Position Orientation Groundspeed Altitude Reporting Facility
EDT Latitude Longitude Course Direction KTS MPH feet Rate Location/Type
Mon 01:33:54 PM 33.4333 -111.9667 90° East 182 209 2,200  Level Phoenix TRACON
Mon 01:34:48 PM 33.4333 -111.9167 90° East 219 252 3,700 1,459 Climbing Phoenix TRACON
Mon 01:35:08 PM 33.4358 -111.8992 80° East 212 244 4,000 1,610 Climbing Albuquerque Center
Mon 01:36:10 PM 33.4461 -111.8156 82° East 254 292 5,900 2,613 Climbing Albuquerque Center
Mon 01:37:12 PM 33.4611 -111.7006 81° East 294 338 9,400 2,758 Climbing Albuquerque Center
Mon 01:38:14 PM 33.4750 -111.5928 81° East 327 376 11,600 2,516 Climbing Albuquerque Center
Mon 01:39:16 PM 33.4908 -111.4719 81° East 367 422 14,600 2,661 Climbing Albuquerque Center
Mon 01:40:18 PM 33.5056 -111.3458 82° East 384 442 17,100 2,419 Climbing Albuquerque Center
Mon 01:41:20 PM 33.5206 -111.2117 82° East 407 468 19,600 2,565 Climbing Albuquerque Center
Mon 01:42:22 PM 33.5394 -111.0461 82° East 422 486 22,400 2,323 Climbing Albuquerque Center
Mon 01:43:24 PM 33.5561 -110.8997 82° East 438 504 24,400 1,887 Climbing Albuquerque Center
Mon 01:44:26 PM 33.5992 -110.7606 70° East 443 510 26,300 1,742 Climbing Albuquerque Center
Mon 01:45:28 PM 33.6447 -110.6197 69° East 453 521 28,000 1,597 Climbing Albuquerque Center
Mon 01:46:30 PM 33.6906 -110.4744 69° East 461 531 29,600 1,536 Climbing Albuquerque Center
Mon 01:47:33 PM 33.7411 -110.3158 69° East 472 543 31,200 1,584 Climbing Albuquerque Center
Mon 01:48:35 PM 33.7900 -110.1669 68° East 479 551 32,900 1,500 Climbing Albuquerque Center
Mon 01:49:37 PM 33.8364 -110.0197 69° East 477 549 34,300 1,161 Climbing Albuquerque Center
Mon 01:51:00 PM 33.8941 -109.8003 68° East  Level FlightAware Approximate
Mon 01:51:41 PM 33.9414 -109.6903 68° East 483 556 36,500  Level Albuquerque Center
Mon 01:52:43 PM 33.9892 -109.5381 69° East 487 560 37,000 242 Climbing Albuquerque Center
Mon 01:53:45 PM 34.0358 -109.3869 70° East 487 560 37,000  Level Albuquerque Center
Mon 01:54:47 PM 34.0831 -109.2375 69° East 482 555 37,000  Level Albuquerque Center
Mon 01:55:49 PM 34.1347 -109.0536 71° East 483 556 37,000  Level Albuquerque Center
Mon 01:56:51 PM 34.1736 -108.8992 73° East 484 557 37,000  Level Albuquerque Center
Mon 01:57:53 PM 34.2139 -108.7456 72° East 484 557 37,000  Level Albuquerque Center
Mon 01:58:55 PM 34.2542 -108.5917 72° East 484 557 37,000  Level Albuquerque Center
Mon 01:59:57 PM 34.2939 -108.4369 73° East 484 557 37,000  Level Albuquerque Center
Mon 02:00:59 PM 34.3406 -108.2542 73° East 482 555 37,000  Level Albuquerque Center
Mon 02:02:01 PM 34.3806 -108.0986 73° East 484 557 37,000  Level Albuquerque Center
Mon 02:03:03 PM 34.4197 -107.9428 73° East 485 558 37,000  Level Albuquerque Center
Mon 02:04:05 PM 34.4589 -107.7875 73° East 484 557 37,000  Level Albuquerque Center
Mon 02:05:07 PM 34.4983 -107.6300 73° East 488 562 37,000  Level Albuquerque Center
Mon 02:06:09 PM 34.5458 -107.4411 73° East 489 563 37,000  Level Albuquerque Center
Mon 02:07:11 PM 34.5850 -107.2833 73° East 491 565 37,000  Level Albuquerque Center
Mon 02:08:13 PM 34.6231 -107.1244 74° East 491 565 37,000  Level Albuquerque Center
Mon 02:09:15 PM 34.6614 -106.9672 73° East 491 565 37,000  Level Albuquerque Center
Mon 02:10:17 PM 34.6983 -106.8094 74° East 491 565 37,000  Level Albuquerque Center
Mon 02:11:19 PM 34.7442 -106.6197 74° East 493 567 37,000  Level Albuquerque Center
Mon 02:12:21 PM 34.7811 -106.4628 74° East 490 564 37,000  Level Albuquerque Center
Mon 02:13:23 PM 34.8189 -106.3039 74° East 492 566 37,000  Level Albuquerque Center
Mon 02:14:25 PM 34.8558 -106.1456 74° East 490 564 37,000  Level Albuquerque Center
Mon 02:15:26 PM 34.8922 -105.9869 74° East 489 563 37,000  Level Albuquerque Center
Mon 02:16:28 PM 34.9331 -105.8169 74° East 490 564 37,000  Level Albuquerque Center
Mon 02:17:30 PM 34.9703 -105.6556 74° East 491 565 37,000  Level Albuquerque Center
Mon 02:18:32 PM 35.0125 -105.4686 75° East 487 560 37,000  Level Albuquerque Center
Mon 02:19:34 PM 35.0506 -105.3075 74° East 489 563 37,000  Level Albuquerque Center
Mon 02:20:35 PM 35.0864 -105.1475 75° East 486 559 37,000  Level Albuquerque Center
Mon 02:21:37 PM 35.1339 -104.9944 69° East 478 550 37,000  Level Albuquerque Center
Mon 02:22:39 PM 35.2036 -104.8578 58° Northeast 469 540 37,000  Level Albuquerque Center
Mon 02:23:40 PM 35.2725 -104.7175 59° Northeast 472 543 37,000  Level Albuquerque Center
Mon 02:24:42 PM 35.3467 -104.5714 58° Northeast 475 547 37,000  Level Albuquerque Center
Mon 02:25:44 PM 35.4128 -104.4361 59° Northeast 476 548 37,000  Level Albuquerque Center
Mon 02:26:46 PM 35.4842 -104.2928 59° Northeast 480 552 37,000  Level Albuquerque Center
Mon 02:27:47 PM 35.5553 -104.1486 59° Northeast 483 556 37,000  Level Albuquerque Center
Mon 02:28:49 PM 35.6267 -104.0039 59° Northeast 486 559 37,000  Level Albuquerque Center
Mon 02:29:51 PM 35.6967 -103.8581 59° Northeast 489 563 37,000  Level Albuquerque Center
Mon 02:30:53 PM 35.7686 -103.7117 59° Northeast 492 566 37,000  Level Albuquerque Center
Mon 02:31:54 PM 35.8519 -103.5389 59° Northeast 497 572 37,000  Level Albuquerque Center
Mon 02:32:56 PM 35.9228 -103.3906 59° Northeast 497 572 37,000  Level Albuquerque Center
Mon 02:33:58 PM 35.9933 -103.2414 60° Northeast 498 573 37,000  Level Albuquerque Center
Mon 02:34:59 PM 36.0653 -103.0922 59° Northeast 499 574 37,000  Level Albuquerque Center
Mon 02:36:01 PM 36.1364 -102.9425 60° Northeast 501 577 37,000  Level Albuquerque Center
Mon 02:37:03 PM 36.2028 -102.8028 59° Northeast 504 580 37,000  Level Albuquerque Center
Mon 02:38:05 PM 36.2733 -102.6544 59° Northeast 501 577 37,000  Level Albuquerque Center
Mon 02:39:06 PM 36.3581 -102.4725 60° Northeast 506 582 37,000  Level Albuquerque Center
Mon 02:40:08 PM 36.4289 -102.3194 60° Northeast 510 587 37,000  Level Albuquerque Center
Mon 02:41:10 PM 36.4997 -102.1672 60° Northeast 509 586 37,000  Level Albuquerque Center
Mon 02:42:12 PM 36.5708 -102.0158 60° Northeast 508 585 37,000  Level Albuquerque Center
Mon 02:43:13 PM 36.6483 -101.8467 60° Northeast 511 588 37,000  Level Albuquerque Center
Mon 02:44:15 PM 36.7150 -101.7003 60° Northeast 510 587 37,000  Level Albuquerque Center
Mon 02:45:17 PM 36.7933 -101.5275 60° Northeast 512 589 37,000  Level Albuquerque Center
Mon 02:46:19 PM 36.8614 -101.3806 60° Northeast 512 589 37,000  Level Albuquerque Center
Mon 02:47:04 PM 36.9167 -101.2561 61° Northeast 513 590 37,000  Level Kansas City Center
Mon 02:48:05 PM 36.9825 -101.1092 61° Northeast 511 588 37,000  Level Kansas City Center
Mon 02:49:09 PM 37.0533 -100.9322 63° Northeast 512 589 37,000  Level Kansas City Center
Mon 02:50:10 PM 37.0897 -100.7650 75° East 521 600 37,000  Level Kansas City Center
Mon 02:51:13 PM 37.1322 -100.5744 74° East 516 594 37,000  Level Kansas City Center
Mon 02:52:14 PM 37.1675 -100.4111 75° East 512 589 37,000  Level Kansas City Center
Mon 02:53:15 PM 37.2083 -100.2189 75° East 513 590 37,000  Level Kansas City Center
Mon 02:54:19 PM 37.2447 -100.0544 74° East 514 592 37,000  Level Kansas City Center
Mon 02:55:19 PM 37.2853 -99.8619 75° East 514 592 37,000  Level Kansas City Center
Mon 02:56:23 PM 37.3194 -99.6967 75° East 512 589 37,000  Level Kansas City Center
Mon 02:57:23 PM 37.3600 -99.5058 75° East 509 586 37,000  Level Kansas City Center
Mon 02:58:26 PM 37.3936 -99.3628 73° East 516 594 37,000  Level Kansas City Center
Mon 02:59:27 PM 37.4375 -99.1558 75° East 512 589 37,000  Level Kansas City Center
Mon 03:00:30 PM 37.4678 -98.9778 78° East 521 600 37,000  Level Kansas City Center
Mon 03:01:32 PM 37.5036 -98.8033 75° East 519 597 37,000  Level Kansas City Center
Mon 03:02:32 PM 37.5394 -98.6278 76° East 519 597 37,000  Level Kansas City Center
Mon 03:03:35 PM 37.5750 -98.4525 76° East 519 597 37,000  Level Kansas City Center
Mon 03:04:36 PM 37.6106 -98.2750 76° East 523 602 37,000  Level Kansas City Center
Mon 03:05:40 PM 37.6475 -98.0822 76° East 526 605 37,000  Level Kansas City Center
Mon 03:06:41 PM 37.6831 -97.9003 76° East 530 610 37,000  Level Kansas City Center
Mon 03:07:42 PM 37.7258 -97.6803 76° East 534 615 37,000  Level Kansas City Center
Mon 03:08:43 PM 37.7600 -97.4986 77° East 530 610 37,000  Level Kansas City Center
Mon 03:09:47 PM 37.7903 -97.3431 76° East 538 619 37,000  Level Kansas City Center
Mon 03:10:48 PM 37.8286 -97.1250 77° East 533 613 37,000  Level Kansas City Center
Mon 03:11:49 PM 37.8617 -96.9453 77° East 527 606 37,000  Level Kansas City Center
Mon 03:12:52 PM 37.8933 -96.7678 77° East 521 600 37,000  Level Kansas City Center
Mon 03:13:53 PM 37.9236 -96.5881 78° East 522 601 37,000  Level Kansas City Center
Mon 03:14:54 PM 37.9536 -96.4103 78° East 519 597 37,000  Level Kansas City Center
Mon 03:15:58 PM 37.9839 -96.2317 78° East 518 596 37,000  Level Kansas City Center
Mon 03:16:59 PM 38.0142 -96.0422 78° East 515 593 37,000  Level Kansas City Center
Mon 03:18:00 PM 38.0469 -95.8428 78° East 517 595 37,000  Level Kansas City Center
Mon 03:19:01 PM 38.0781 -95.6700 77° East 523 602 37,000  Level Kansas City Center
Mon 03:20:05 PM 38.1122 -95.4711 78° East 519 597 37,000  Level Kansas City Center
Mon 03:21:19 PM 38.1425 -95.2967 78° East 529 609 37,000  Level Kansas City Center
Mon 03:22:19 PM 38.1811 -95.0658 78° East 526 605 37,000  Level Kansas City Center
Mon 03:23:23 PM 38.2122 -94.8725 78° East 523 602 37,000  Level Kansas City Center
Mon 03:24:24 PM 38.2417 -94.6867 79° East 529 609 37,000  Level Kansas City Center
Mon 03:25:25 PM 38.2678 -94.5139 79° East 528 608 37,000  Level Kansas City Center
Mon 03:26:29 PM 38.3108 -94.3178 74° East 520 598 37,000  Level Kansas City Center
Mon 03:27:29 PM 38.3500 -94.1489 73° East 519 597 37,000  Level Kansas City Center
Mon 03:28:30 PM 38.3928 -93.9547 74° East 515 593 37,000  Level Kansas City Center
Mon 03:29:32 PM 38.4325 -93.7778 74° East 516 594 37,000 144 Level Kansas City Center
Mon 03:30:35 PM 38.4719 -93.6056 74° East 509 586 37,300 435 Climbing Kansas City Center
Mon 03:31:36 PM 38.5083 -93.4331 75° East 504 580 37,900 836 Climbing Kansas City Center
Mon 03:32:37 PM 38.5467 -93.2569 74° East 508 585 39,000 528 Climbing Kansas City Center
Mon 03:33:41 PM 38.5842 -93.0842 74° East 505 581 39,000  Level Kansas City Center
Mon 03:34:41 PM 38.6228 -92.9108 74° East 503 579 39,000  Level Kansas City Center
Mon 03:35:42 PM 38.6653 -92.7064 75° East 498 573 39,000  Level Kansas City Center
Mon 03:36:43 PM 38.7025 -92.5336 75° East 498 573 39,000  Level Kansas City Center
Mon 03:37:47 PM 38.7372 -92.3606 76° East 498 573 39,000  Level Kansas City Center
Mon 03:38:49 PM 38.7725 -92.1889 75° East 497 572 39,000  Level Kansas City Center
Mon 03:39:49 PM 38.8078 -92.0197 75° East 491 565 39,000  Level Kansas City Center
Mon 03:40:52 PM 38.8428 -91.8489 75° East 491 565 39,000  Level Kansas City Center
Mon 03:41:53 PM 38.8786 -91.6658 76° East 488 562 39,000  Level Kansas City Center
Mon 03:42:55 PM 38.9122 -91.4978 76° East 487 560 39,000  Level Kansas City Center
Mon 03:43:58 PM 38.9461 -91.3294 75° East 487 560 39,000  Level Kansas City Center
Mon 03:44:59 PM 38.9803 -91.1617 75° East 486 559 39,000  Level Kansas City Center
Mon 03:46:00 PM 39.0128 -90.9939 76° East 483 556 39,000  Level Kansas City Center
Mon 03:47:01 PM 39.0453 -90.8272 76° East 481 554 39,000  Level Kansas City Center
Mon 03:48:03 PM 39.0772 -90.6600 76° East 479 551 39,000  Level Kansas City Center
Mon 03:49:07 PM 39.1100 -90.4908 76° East 482 555 39,000  Level Kansas City Center
Mon 03:50:07 PM 39.1486 -90.2886 76° East 482 555 39,000  Level Kansas City Center
Mon 03:51:11 PM 39.1803 -90.1197 76° East 482 555 39,000  Level Kansas City Center
Mon 03:52:10 PM 39.2117 -89.9514 76° East 482 555 39,000  Level Kansas City Center
Mon 03:53:13 PM 39.2431 -89.7836 76° East 483 556 39,000  Level Kansas City Center
Mon 03:54:13 PM 39.2728 -89.6144 77° East 482 555 39,000  Level Kansas City Center
Mon 03:55:17 PM 39.3033 -89.4442 77° East 485 558 39,000  Level Kansas City Center
Mon 03:56:17 PM 39.3336 -89.2756 77° East 483 556 39,000  Level Kansas City Center
Mon 03:57:21 PM 39.3631 -89.1081 77° East 481 554 39,000  Level Kansas City Center
Mon 03:58:21 PM 39.4006 -88.9058 76° East 482 555 39,000  Level Kansas City Center
Mon 03:59:24 PM 39.4258 -88.7514 78° East 482 555 39,000  Level Kansas City Center
Mon 04:00:25 PM 39.4597 -88.5647 77° East 482 555 39,000  Level Kansas City Center
Mon 04:01:26 PM 39.4889 -88.3961 77° East 480 552 39,000  Level Kansas City Center
Mon 04:02:29 PM 39.5181 -88.2247 78° East 482 555 39,000  Level Kansas City Center
Mon 04:03:30 PM 39.5469 -88.0539 78° East 483 556 39,000  Level Kansas City Center
Mon 04:04:31 PM 39.5750 -87.8844 78° East 479 551 39,000  Level Kansas City Center
Mon 04:05:35 PM 39.6025 -87.7144 78° East 480 552 39,000  Level Kansas City Center
Mon 04:06:19 PM 39.6231 -87.5825 79° East 480 552 39,000  Level Indianapolis Center
Mon 04:07:21 PM 39.6517 -87.4111 78° East 482 555 39,000  Level Indianapolis Center
Mon 04:08:23 PM 39.6842 -87.2061 78° East 481 554 39,000  Level Indianapolis Center
Mon 04:09:25 PM 39.7114 -87.0342 78° East 482 555 39,000  Level Indianapolis Center
Mon 04:10:27 PM 39.7378 -86.8622 79° East 483 556 39,000  Level Indianapolis Center
Mon 04:11:29 PM 39.7653 -86.6908 78° East 483 556 39,000  Level Indianapolis Center
Mon 04:12:31 PM 39.7906 -86.5197 79° East 481 554 39,000  Level Indianapolis Center
Mon 04:13:32 PM 39.8183 -86.3483 78° East 481 554 39,000  Level Indianapolis Center
Mon 04:14:34 PM 39.8531 -86.1806 75° East 479 551 39,000  Level Indianapolis Center
Mon 04:15:37 PM 39.8894 -86.0136 74° East 478 550 39,000  Level Indianapolis Center
Mon 04:16:38 PM 39.9289 -85.8247 75° East 479 551 39,000  Level Indianapolis Center
Mon 04:17:40 PM 39.9653 -85.6567 74° East 479 551 39,000  Level Indianapolis Center
Mon 04:18:42 PM 39.9992 -85.4875 75° East 479 551 39,000  Level Indianapolis Center
Mon 04:19:44 PM 40.0350 -85.3192 74° East 477 549 39,000  Level Indianapolis Center
Mon 04:20:46 PM 40.0686 -85.1494 75° East 480 552 39,000  Level Indianapolis Center
Mon 04:21:48 PM 40.1019 -84.9817 75° East 475 547 39,000  Level Indianapolis Center
Mon 04:22:50 PM 40.1425 -84.7858 75° East 473 544 39,000  Level Indianapolis Center
Mon 04:23:52 PM 40.1753 -84.6167 76° East 475 547 39,000  Level Indianapolis Center
Mon 04:24:54 PM 40.2092 -84.4472 75° East 477 549 39,000  Level Indianapolis Center
Mon 04:25:56 PM 40.2419 -84.2789 76° East 475 547 39,000  Level Indianapolis Center
Mon 04:26:58 PM 40.2739 -84.1097 76° East 474 545 39,000  Level Indianapolis Center
Mon 04:27:59 PM 40.3289 -83.9503 66° East 473 544 39,000  Level Indianapolis Center
Mon 04:29:01 PM 40.3997 -83.8000 58° Northeast 476 548 39,000  Level Indianapolis Center
Mon 04:30:03 PM 40.4683 -83.6472 59° Northeast 480 552 39,000  Level Indianapolis Center
Mon 04:31:05 PM 40.5386 -83.4953 59° Northeast 480 552 39,000  Level Indianapolis Center
Mon 04:32:07 PM 40.6183 -83.3175 59° Northeast 480 552 39,000  Level Indianapolis Center
Mon 04:32:37 PM 40.6531 -83.2433 58° Northeast 477 549 39,000  Level Cleveland Center
Mon 04:33:37 PM 40.7125 -83.1114 59° Northeast 477 549 39,000  Level Cleveland Center
Mon 04:34:37 PM 40.7825 -82.9606 58° Northeast 477 549 39,000  Level Cleveland Center
Mon 04:35:37 PM 40.8458 -82.8119 61° Northeast 477 549 39,000  Level Cleveland Center
Mon 04:36:37 PM 40.9111 -82.6631 60° Northeast 470 541 39,000  Level Cleveland Center
Mon 04:37:37 PM 40.9786 -82.5111 59° Northeast 470 541 39,000  Level Cleveland Center
Mon 04:38:37 PM 41.0456 -82.3561 60° Northeast 470 541 39,000  Level Cleveland Center
Mon 04:39:37 PM 41.1125 -82.2064 59° Northeast 475 547 39,000  Level Cleveland Center
Mon 04:40:37 PM 41.1814 -82.0508 59° Northeast 482 555 39,000  Level Cleveland Center
Mon 04:41:37 PM 41.2456 -81.9006 60° Northeast 482 555 39,000  Level Cleveland Center
Mon 04:42:37 PM 41.3119 -81.7497 60° Northeast 482 555 39,000  Level Cleveland Center
Mon 04:43:37 PM 41.3781 -81.5958 60° Northeast 482 555 39,000  Level Cleveland Center
Mon 04:44:37 PM 41.4419 -81.4447 61° Northeast 477 549 39,000  Level Cleveland Center
Mon 04:45:37 PM 41.5056 -81.2928 61° Northeast 477 549 39,000  Level Cleveland Center
Mon 04:46:37 PM 41.5708 -81.1383 60° Northeast 477 549 39,000  Level Cleveland Center
Mon 04:47:37 PM 41.6342 -80.9833 61° Northeast 477 549 39,000  Level Cleveland Center
Mon 04:48:37 PM 41.6992 -80.8306 60° Northeast 476 548 39,000  Level Cleveland Center
Mon 04:49:37 PM 41.7639 -80.6722 61° Northeast 476 548 39,000  Level Cleveland Center
Mon 04:50:37 PM 41.7953 -80.4914 77° East 458 527 39,000  Level Cleveland Center
Mon 04:51:37 PM 41.7761 -80.3214 99° East 453 521 39,000  Level Cleveland Center
Mon 04:52:37 PM 41.7569 -80.1461 98° East 461 531 39,000  Level Cleveland Center
Mon 04:53:37 PM 41.7375 -79.9767 99° East 466 536 39,000  Level Cleveland Center
Mon 04:54:37 PM 41.7219 -79.8097 97° East 461 531 39,000  Level Cleveland Center
Mon 04:55:37 PM 41.7017 -79.6375 99° East 467 537 39,000  Level Cleveland Center
Mon 04:56:37 PM 41.6856 -79.4683 97° East 462 532 39,000  Level Cleveland Center
Mon 04:57:37 PM 41.6672 -79.2961 98° East 462 532 39,000  Level Cleveland Center
Mon 04:58:37 PM 41.6486 -79.1269 98° East 462 532 39,000  Level Cleveland Center
Mon 04:59:37 PM 41.6294 -78.9553 98° East 462 532 39,000  Level Cleveland Center
Mon 05:00:37 PM 41.6081 -78.7836 99° East 467 537 39,000  Level Cleveland Center
Mon 05:01:37 PM 41.5886 -78.6119 99° East 467 537 39,000 -900 Level Cleveland Center
Mon 05:02:37 PM 41.5711 -78.4403 98° East 467 537 37,200 -2,020 Descending Cleveland Center
Mon 05:03:15 PM 41.5572 -78.3397 100° East 461 531 35,700 -2,061 Descending New York Center
Mon 05:04:16 PM 41.5408 -78.2019 99° East 467 537 33,800 -2,182 Descending New York Center
Mon 05:05:16 PM 41.5158 -78.0025 99° East 467 537 31,300 -1,388 Descending New York Center
Mon 05:06:17 PM 41.4961 -77.8453 99° East 446 513 31,000 -149 Descending New York Center
Mon 05:07:17 PM 41.4739 -77.6906 101° East 433 498 31,000  Level New York Center
Mon 05:08:15 PM 41.4517 -77.5331 101° East 433 498 31,000  Level New York Center
Mon 05:09:16 PM 41.4253 -77.3728 102° East 433 498 31,000  Level New York Center
Mon 05:10:17 PM 41.4008 -77.2097 101° East 438 504 31,000  Level New York Center
Mon 05:11:15 PM 41.3786 -77.0444 100° East 438 504 31,000 -101 Level New York Center
Mon 05:12:16 PM 41.3539 -76.8792 101° East 445 512 30,800 -1,388 Descending New York Center
Mon 05:13:16 PM 41.3203 -76.7186 106° East 455 524 28,200 -2,479 Descending New York Center
Mon 05:14:17 PM 41.2800 -76.5633 109° East 455 524 25,800 -2,281 Descending New York Center
Mon 05:15:17 PM 41.2392 -76.4189 111° Southeast 434 499 23,600 -2,186 Descending New York Center
Mon 05:16:15 PM 41.2000 -76.2750 110° East 421 484 21,500 -1,866 Descending New York Center
Mon 05:17:16 PM 41.1647 -76.1397 109° East 409 471 19,900 -1,289 Descending New York Center
Mon 05:18:16 PM 41.1289 -76.0047 109° East 396 456 18,900 -1,050 Descending New York Center
Mon 05:19:16 PM 41.0933 -75.8697 109° East 396 456 17,800 -1,513 Descending New York Center
Mon 05:20:15 PM 41.0608 -75.7519 110° East 391 450 15,900 -2,250 Descending New York Center
Mon 05:21:16 PM 41.0231 -75.6089 109° East 380 437 13,300 -1,475 Descending New York Center
Mon 05:22:17 PM 40.9903 -75.4908 110° East 356 410 12,900 -496 Descending New York Center
Mon 05:23:17 PM 40.9572 -75.3761 111° Southeast 336 387 12,300 -1,169 Descending New York Center
Mon 05:24:15 PM 40.9242 -75.2639 111° Southeast 331 381 10,600 -1,119 Descending New York Center
Mon 05:25:15 PM 40.8967 -75.1606 109° East 319 367 10,100 -639 Descending New York Center
Mon 05:26:17 PM 40.8725 -75.0822 112° Southeast 275 316 9,300 -1,050 Descending New York Center
Mon 05:27:15 PM 40.8486 -74.9928 109° East 260 299 8,000 -1,169 Descending New York Center
Mon 05:28:15 PM 40.8436 -74.9019 94° East 249 287 7,000 -446 Descending New York Center
Mon 05:29:16 PM 40.8953 -74.8475 39° Northeast 223 257 7,100 50 Climbing New York Center
Mon 05:30:16 PM 40.8897 -74.7703 95° East 204 235 7,100 -50 Level New York Center
Mon 05:31:16 PM 40.9128 -74.7031 66° East 190 219 7,000  Descending New York Center
Mon 05:32:17 PM 40.9800 -74.6850 11° North 203 234 7,100  Climbing New York Center
Mon 05:33:17 PM 41.0392 -74.6581 19° North 222 255 7,000  Descending New York Center
Mon 05:34:15 PM 41.0183 -74.5992 115° Southeast 155 178 7,100 -458 Climbing New York Center
Mon 05:35:15 PM 40.9542 -74.5872 172° South 146 168 6,100 -545 Descending New York Center
Mon 05:36:16 PM 40.8978 -74.5925 184° South 191 220 6,000  Descending New York Center
Mon 05:36:48 PM 40.8500 -74.6000 187° South 221 254 6,100 65 Climbing New York TRACON
Mon 05:37:48 PM 40.8000 -74.6000 180° South 225 259 6,100 -50 Level New York TRACON
Mon 05:38:48 PM 40.7333 -74.6000 180° South 222 255 6,000 -500 Descending New York TRACON
Mon 05:39:48 PM 40.6667 -74.6000 180° South 225 259 5,100 -450 Descending New York TRACON
Mon 05:40:48 PM 40.6167 -74.5833 166° South 221 254 5,100 -250 Level New York TRACON
Mon 05:41:48 PM 40.5500 -74.5667 169° South 220 253 4,600 -550 Descending New York TRACON
Mon 05:42:48 PM 40.5000 -74.5333 153° Southeast 204 235 4,000 -250 Descending New York TRACON
Mon 05:43:48 PM 40.4500 -74.5000 153° Southeast 182 209 4,100 50 Climbing New York TRACON
Mon 05:44:48 PM 40.4333 -74.4500 114° Southeast 165 190 4,100 -211 Level New York TRACON
Mon 05:45:42 PM 40.4000 -74.4000 131° Southeast 166 191 3,700 -500 Descending New York TRACON
Mon 05:46:48 PM 40.4167 -74.3500 66° East 167 192 3,100 -300 Descending New York TRACON
Mon 05:47:42 PM 40.4500 -74.3167 37° Northeast 167 192 3,100  Level New York TRACON
Mon 05:48:48 PM 40.5000 -74.2833 27° Northeast 174 200 3,100 -48 Level New York TRACON
Mon 05:49:48 PM 40.5500 -74.2667 14° North 173 199 3,000 -500 Descending New York TRACON
Mon 05:50:48 PM 40.5833 -74.2333 37° Northeast 179 206 2,100 -900 Descending New York TRACON
Mon 05:51:48 PM 40.6333 -74.2000 27° Northeast 157 181 1,200 -900 Descending New York TRACON

Login

Don't have an account? Register now (free) for customized features, flight alerts, and more!